Time;durP1;ratioP1;P1;durP2;ratioP2;P2;SDS_P1;SDS_P2;PMS_P1;PMS_P2;Temp;Humidity;BMP_temperature;BMP_pressure;BME280_temperature;BME280_humidity;BME280_pressure;Samples;Min_cycle;Max_cycle;Signal;HPM_P1;HPM_P2
2022/05/15 00:02:14;;;;;;;9.50;4.50;;;;;;;;;;5053728;28;20808;-65
2022/05/15 00:04:40;;;;;;;10.40;4.93;;;;;;;;;;5053257;28;20174;-65
2022/05/15 00:07:06;;;;;;;13.47;5.40;;;;;;;;;;5035223;28;20202;-65
2022/05/15 00:09:32;;;;;;;8.43;4.10;;;;;;;;;;5053704;28;20753;-65
2022/05/15 00:11:58;;;;;;;9.83;4.67;;;;;;;;;;5035266;28;20277;-66
2022/05/15 00:14:24;;;;;;;12.43;4.73;;;;;;;;;;5035259;28;20190;-65
2022/05/15 00:16:50;;;;;;;16.33;4.77;;;;;;;;;;5035188;28;20202;-65
2022/05/15 00:19:16;;;;;;;13.13;4.90;;;;;;;;;;5053139;28;20178;-66
2022/05/15 00:21:42;;;;;;;11.27;4.87;;;;;;;;;;5053299;28;20219;-66
2022/05/15 00:24:08;;;;;;;9.87;4.40;;;;;;;;;;5053039;28;20214;-66
2022/05/15 00:26:34;;;;;;;9.70;4.70;;;;;;;;;;5034948;28;20221;-66
2022/05/15 00:29:00;;;;;;;15.07;4.40;;;;;;;;;;5035126;28;20277;-65
2022/05/15 00:31:27;;;;;;;7.57;4.27;;;;;;;;;;5035116;28;20221;-66
2022/05/15 00:33:53;;;;;;;12.17;4.13;;;;;;;;;;5053456;28;20178;-66
2022/05/15 00:36:19;;;;;;;13.13;4.33;;;;;;;;;;5052938;28;20281;-66
2022/05/15 00:38:45;;;;;;;16.43;5.33;;;;;;;;;;5052990;28;20208;-66
2022/05/15 00:41:11;;;;;;;14.10;3.93;;;;;;;;;;5052919;28;20171;-66
2022/05/15 00:43:37;;;;;;;9.00;3.90;;;;;;;;;;5053099;28;20634;-66
2022/05/15 00:46:05;;;;;;;10.27;4.43;;;;;;;;;;5052891;28;20209;-66
2022/05/15 00:48:31;;;;;;;12.67;5.00;;;;;;;;;;5053118;28;20186;-66
2022/05/15 00:50:57;;;;;;;8.77;4.53;;;;;;;;;;5052798;28;20179;-66
2022/05/15 00:53:23;;;;;;;16.43;4.93;;;;;;;;;;5053057;28;20186;-67
2022/05/15 00:55:51;;;;;;;9.17;4.40;;;;;;;;;;5034821;28;20206;-66
2022/05/15 00:58:25;;;;;;;9.73;4.40;;;;;;;;;;5052994;28;20266;-66
2022/05/15 01:00:52;;;;;;;13.63;4.30;;;;;;;;;;5036157;28;20529;-66
2022/05/15 01:03:20;;;;;;;8.90;4.30;;;;;;;;;;5039036;28;20175;-66
2022/05/15 01:05:50;;;;;;;11.80;4.17;;;;;;;;;;5038524;28;20238;-66
2022/05/15 01:08:16;;;;;;;11.17;4.63;;;;;;;;;;5038721;28;20578;-66
2022/05/15 01:10:44;;;;;;;12.87;4.90;;;;;;;;;;5056645;28;20225;-66
2022/05/15 01:13:11;;;;;;;7.87;3.97;;;;;;;;;;5056508;28;20262;-66
2022/05/15 01:15:37;;;;;;;11.70;4.20;;;;;;;;;;5056289;28;20281;-66
2022/05/15 01:18:04;;;;;;;14.67;4.67;;;;;;;;;;5056774;28;20171;-66
2022/05/15 01:20:30;;;;;;;12.00;4.53;;;;;;;;;;5056997;28;20178;-66
2022/05/15 01:22:56;;;;;;;15.37;4.40;;;;;;;;;;5056625;28;20173;-66
2022/05/15 01:25:25;;;;;;;10.93;4.77;;;;;;;;;;5038296;28;20214;-66
2022/05/15 01:27:59;;;;;;;15.33;4.53;;;;;;;;;;5038624;28;20228;-66
2022/05/15 01:30:25;;;;;;;10.83;5.07;;;;;;;;;;5056289;28;20573;-66
2022/05/15 01:32:51;;;;;;;7.27;4.13;;;;;;;;;;5038295;28;20174;-66
2022/05/15 01:35:17;;;;;;;10.80;4.60;;;;;;;;;;5055871;28;20178;-66
2022/05/15 01:37:43;;;;;;;9.67;4.60;;;;;;;;;;5055981;28;20240;-66
2022/05/15 01:40:10;;;;;;;11.70;5.23;;;;;;;;;;5037980;28;20528;-67
2022/05/15 01:42:36;;;;;;;9.10;4.93;;;;;;;;;;5055887;28;20548;-66
2022/05/15 01:45:02;;;;;;;10.47;5.17;;;;;;;;;;5056128;28;20713;-66
2022/05/15 01:47:28;;;;;;;9.80;4.50;;;;;;;;;;5055789;28;20178;-66
2022/05/15 01:49:54;;;;;;;13.70;5.50;;;;;;;;;;5055885;28;20197;-67
2022/05/15 01:52:20;;;;;;;9.50;3.90;;;;;;;;;;5055720;28;20309;-66
2022/05/15 01:54:46;;;;;;;7.50;4.13;;;;;;;;;;5055645;28;20182;-66
2022/05/15 01:57:12;;;;;;;11.60;4.57;;;;;;;;;;5037617;28;20210;-66
2022/05/15 01:59:38;;;;;;;8.73;4.40;;;;;;;;;;5055856;28;20183;-66
2022/05/15 02:02:04;;;;;;;10.00;5.00;;;;;;;;;;5055595;28;20209;-66
2022/05/15 02:04:30;;;;;;;13.97;4.97;;;;;;;;;;5055517;28;20177;-66
2022/05/15 02:06:56;;;;;;;10.93;5.13;;;;;;;;;;5055699;28;20562;-66
2022/05/15 02:09:22;;;;;;;9.90;4.57;;;;;;;;;;5055719;28;20189;-66
2022/05/15 02:11:48;;;;;;;12.93;4.93;;;;;;;;;;5036753;28;20210;-66
2022/05/15 02:14:14;;;;;;;14.53;5.00;;;;;;;;;;5055037;28;20212;-66
2022/05/15 02:16:40;;;;;;;16.43;5.03;;;;;;;;;;5055166;28;20210;-66
2022/05/15 02:19:06;;;;;;;11.70;5.03;;;;;;;;;;5055486;28;20182;-66
2022/05/15 02:21:32;;;;;;;9.70;4.43;;;;;;;;;;5055221;28;20201;-66
2022/05/15 02:23:58;;;;;;;11.43;4.57;;;;;;;;;;5055670;28;20285;-66
2022/05/15 02:26:25;;;;;;;10.63;4.90;;;;;;;;;;5037006;28;20658;-66
2022/05/15 02:28:51;;;;;;;12.00;5.53;;;;;;;;;;5055014;28;20206;-66
2022/05/15 02:31:17;;;;;;;13.07;5.30;;;;;;;;;;5037117;28;20208;-66
2022/05/15 02:33:43;;;;;;;14.10;5.50;;;;;;;;;;5037025;28;20179;-66
2022/05/15 02:36:10;;;;;;;17.50;5.53;;;;;;;;;;5054786;28;20285;-66
2022/05/15 02:38:37;;;;;;;11.77;5.30;;;;;;;;;;5054884;28;20182;-66
2022/05/15 02:41:03;;;;;;;12.47;5.50;;;;;;;;;;5054924;28;20171;-66
2022/05/15 02:43:29;;;;;;;12.93;5.17;;;;;;;;;;5054868;28;20183;-66
2022/05/15 02:45:55;;;;;;;11.60;5.17;;;;;;;;;;5054708;28;20690;-66
2022/05/15 02:51:06;;;;;;;14.47;5.70;;;;;;;;;;5054699;28;20201;-66
2022/05/15 02:53:33;;;;;;;14.13;5.93;;;;;;;;;;5036813;28;20187;-66
2022/05/15 02:56:00;;;;;;;11.80;4.87;;;;;;;;;;5054288;28;20283;-66
2022/05/15 02:58:26;;;;;;;13.77;5.83;;;;;;;;;;5054501;28;20171;-66
2022/05/15 03:00:52;;;;;;;17.07;6.67;;;;;;;;;;5054777;28;20171;-66
2022/05/15 03:03:18;;;;;;;13.53;6.33;;;;;;;;;;5036466;28;20182;-66
2022/05/15 03:05:44;;;;;;;9.20;4.30;;;;;;;;;;5036398;28;20256;-66
2022/05/15 03:08:10;;;;;;;5.47;3.87;;;;;;;;;;5054346;28;20193;-66
2022/05/15 03:10:36;;;;;;;3.70;3.27;;;;;;;;;;5036377;28;20565;-66
2022/05/15 03:13:01;;;;;;;9.43;4.10;;;;;;;;;;5036536;28;20213;-66
2022/05/15 03:15:27;;;;;;;5.70;3.73;;;;;;;;;;5036468;28;20205;-66
2022/05/15 03:17:53;;;;;;;5.30;3.13;;;;;;;;;;5036266;28;20181;-66
2022/05/15 03:20:19;;;;;;;4.47;3.30;;;;;;;;;;5054248;28;20253;-66
2022/05/15 03:22:45;;;;;;;3.03;2.60;;;;;;;;;;5054111;28;20178;-66
2022/05/15 03:25:11;;;;;;;5.37;2.97;;;;;;;;;;5053751;28;20253;-66
2022/05/15 03:27:37;;;;;;;4.83;3.20;;;;;;;;;;5054774;28;20163;-67
2022/05/15 03:30:05;;;;;;;2.47;2.17;;;;;;;;;;5054641;28;20210;-66
2022/05/15 03:32:31;;;;;;;5.77;2.80;;;;;;;;;;5035896;28;20669;-66
2022/05/15 03:34:57;;;;;;;3.83;2.80;;;;;;;;;;5035941;28;20293;-66
2022/05/15 03:37:23;;;;;;;5.73;3.30;;;;;;;;;;5035778;28;20241;-67
2022/05/15 03:39:49;;;;;;;3.50;2.83;;;;;;;;;;5053912;28;20167;-66
2022/05/15 03:42:15;;;;;;;5.57;3.63;;;;;;;;;;5053887;28;20170;-66
2022/05/15 03:44:41;;;;;;;4.13;3.03;;;;;;;;;;5054211;28;20202;-66
2022/05/15 03:47:07;;;;;;;3.80;2.70;;;;;;;;;;5053589;28;20671;-66
2022/05/15 03:49:33;;;;;;;3.37;3.00;;;;;;;;;;5053564;28;20174;-66
2022/05/15 03:51:59;;;;;;;2.97;2.73;;;;;;;;;;5053649;28;20189;-66
2022/05/15 03:54:25;;;;;;;6.23;3.13;;;;;;;;;;5053423;28;20217;-66
2022/05/15 03:56:50;;;;;;;3.57;3.27;;;;;;;;;;5053247;28;20286;-66
2022/05/15 03:59:22;;;;;;;2.63;2.40;;;;;;;;;;5053589;28;20531;-66
2022/05/15 04:01:48;;;;;;;3.63;3.33;;;;;;;;;;5035553;28;20171;-66
2022/05/15 04:04:14;;;;;;;4.13;2.97;;;;;;;;;;5035427;28;20178;-66
2022/05/15 04:06:40;;;;;;;4.07;2.80;;;;;;;;;;5053500;28;20260;-66
2022/05/15 04:09:07;;;;;;;3.93;3.40;;;;;;;;;;5053366;28;20179;-66
2022/05/15 04:11:33;;;;;;;3.03;2.70;;;;;;;;;;5035378;28;20182;-66
2022/05/15 04:13:59;;;;;;;4.07;3.00;;;;;;;;;;5053165;28;20186;-66
2022/05/15 04:16:25;;;;;;;3.87;3.40;;;;;;;;;;5035205;28;20292;-66
2022/05/15 04:18:51;;;;;;;4.13;3.27;;;;;;;;;;5053057;28;20212;-66
2022/05/15 04:21:17;;;;;;;3.87;3.17;;;;;;;;;;5035277;28;20183;-66
2022/05/15 04:23:43;;;;;;;3.17;2.83;;;;;;;;;;5035194;28;20175;-67
2022/05/15 04:26:09;;;;;;;4.93;3.57;;;;;;;;;;5052930;28;20229;-66
2022/05/15 04:28:35;;;;;;;4.30;3.40;;;;;;;;;;5035187;28;20565;-66
2022/05/15 04:31:02;;;;;;;3.83;3.03;;;;;;;;;;5035289;28;20209;-66
2022/05/15 04:33:28;;;;;;;4.30;3.63;;;;;;;;;;5035233;28;20244;-66
2022/05/15 04:35:54;;;;;;;4.17;3.23;;;;;;;;;;5036599;28;20296;-66
2022/05/15 04:38:20;;;;;;;4.10;3.70;;;;;;;;;;5039315;28;20638;-65
2022/05/15 04:40:46;;;;;;;4.17;3.57;;;;;;;;;;5039275;28;20174;-66
2022/05/15 04:43:11;;;;;;;4.07;3.30;;;;;;;;;;5040105;28;20178;-66
2022/05/15 04:45:37;;;;;;;5.00;3.40;;;;;;;;;;5056994;28;20343;-67
2022/05/15 04:48:04;;;;;;;5.17;3.43;;;;;;;;;;5057239;28;20178;-66
2022/05/15 04:50:30;;;;;;;5.20;3.87;;;;;;;;;;5057088;28;20209;-66
2022/05/15 04:52:56;;;;;;;4.00;3.60;;;;;;;;;;5039041;28;20178;-66
2022/05/15 04:55:21;;;;;;;5.27;4.20;;;;;;;;;;5038873;28;20186;-66
2022/05/15 04:57:47;;;;;;;6.60;3.67;;;;;;;;;;5039314;28;20182;-66
2022/05/15 05:00:17;;;;;;;4.30;3.67;;;;;;;;;;5038851;28;20189;-66
2022/05/15 05:02:43;;;;;;;3.90;3.53;;;;;;;;;;5056758;28;20174;-66
2022/05/15 05:05:09;;;;;;;6.97;4.43;;;;;;;;;;5038854;28;20214;-64
2022/05/15 05:07:35;;;;;;;6.47;4.63;;;;;;;;;;5038752;28;20655;-67
2022/05/15 05:10:01;;;;;;;5.00;4.00;;;;;;;;;;5038740;28;20181;-66
2022/05/15 05:12:27;;;;;;;7.73;3.97;;;;;;;;;;5038612;28;20182;-66
2022/05/15 05:14:53;;;;;;;5.67;3.97;;;;;;;;;;5056419;28;20186;-66
2022/05/15 05:17:19;;;;;;;5.80;3.77;;;;;;;;;;5038529;28;20206;-66
2022/05/15 05:19:45;;;;;;;3.57;3.23;;;;;;;;;;5056510;28;20242;-66
2022/05/15 05:22:11;;;;;;;3.77;3.30;;;;;;;;;;5056690;28;20266;-66
2022/05/15 05:24:37;;;;;;;4.07;3.40;;;;;;;;;;5038529;28;20182;-66
2022/05/15 05:27:03;;;;;;;4.27;3.87;;;;;;;;;;5038598;28;20222;-66
2022/05/15 05:29:29;;;;;;;5.07;4.03;;;;;;;;;;5038456;28;20190;-66
2022/05/15 05:31:55;;;;;;;3.80;3.50;;;;;;;;;;5038614;28;20197;-66
2022/05/15 05:34:21;;;;;;;5.20;3.80;;;;;;;;;;5056741;28;20182;-65
2022/05/15 05:36:47;;;;;;;5.93;3.83;;;;;;;;;;5056206;28;20260;-68
2022/05/15 05:39:13;;;;;;;6.60;4.03;;;;;;;;;;5056198;28;20638;-67
2022/05/15 05:41:39;;;;;;;4.80;3.53;;;;;;;;;;5056319;28;20250;-67
2022/05/15 05:44:05;;;;;;;3.93;3.47;;;;;;;;;;5056136;28;20190;-67
2022/05/15 05:46:31;;;;;;;4.33;3.57;;;;;;;;;;5038210;28;20716;-67
2022/05/15 05:48:57;;;;;;;5.03;3.67;;;;;;;;;;5057885;28;20234;-67
2022/05/15 05:51:25;;;;;;;4.53;3.70;;;;;;;;;;5038170;28;20677;-65
2022/05/15 05:53:51;;;;;;;6.00;3.67;;;;;;;;;;5038039;28;20183;-65
2022/05/15 05:56:18;;;;;;;4.57;3.60;;;;;;;;;;5038810;28;20742;-65
2022/05/15 05:58:45;;;;;;;5.23;3.70;;;;;;;;;;5055959;28;20185;-65
2022/05/15 06:01:11;;;;;;;3.70;3.30;;;;;;;;;;5055741;28;20170;-67
2022/05/15 06:06:21;;;;;;;7.97;4.07;;;;;;;;;;5055948;28;20289;-65
2022/05/15 06:08:47;;;;;;;4.47;3.60;;;;;;;;;;5055614;28;20205;-67
2022/05/15 06:11:13;;;;;;;4.17;3.77;;;;;;;;;;5037745;28;20561;-66
2022/05/15 06:13:39;;;;;;;7.33;4.17;;;;;;;;;;5037636;28;20277;-67
2022/05/15 06:16:06;;;;;;;5.50;4.30;;;;;;;;;;5037544;28;20242;-66
2022/05/15 06:18:32;;;;;;;5.40;4.73;;;;;;;;;;5037552;28;20178;-67
2022/05/15 06:20:58;;;;;;;5.37;3.87;;;;;;;;;;5055780;28;20175;-67
2022/05/15 06:23:24;;;;;;;5.60;4.23;;;;;;;;;;5056047;28;20175;-67
2022/05/15 06:25:51;;;;;;;5.03;4.33;;;;;;;;;;5055141;28;20218;-67
2022/05/15 06:28:17;;;;;;;6.40;4.37;;;;;;;;;;5037489;28;20202;-67
2022/05/15 06:30:43;;;;;;;5.33;3.90;;;;;;;;;;5055279;28;20182;-67
2022/05/15 06:33:09;;;;;;;8.37;5.10;;;;;;;;;;5037432;28;20555;-67
2022/05/15 06:35:35;;;;;;;6.33;4.30;;;;;;;;;;5037248;28;20210;-66
2022/05/15 06:38:01;;;;;;;8.50;4.93;;;;;;;;;;5055169;28;20175;-67
2022/05/15 06:40:27;;;;;;;7.40;4.70;;;;;;;;;;5037562;28;20264;-67
2022/05/15 06:42:53;;;;;;;7.10;4.77;;;;;;;;;;5055443;28;20212;-66
2022/05/15 06:45:19;;;;;;;6.60;4.43;;;;;;;;;;5037647;28;20178;-66
2022/05/15 06:47:45;;;;;;;9.37;5.40;;;;;;;;;;5037444;28;20197;-66
2022/05/15 06:50:11;;;;;;;7.40;5.00;;;;;;;;;;5055792;28;20316;-66
2022/05/15 06:52:38;;;;;;;11.20;6.27;;;;;;;;;;5037455;28;20276;-67
2022/05/15 06:55:06;;;;;;;10.97;5.97;;;;;;;;;;5037304;28;20606;-66
2022/05/15 06:57:33;;;;;;;22.70;10.87;;;;;;;;;;5054943;28;20705;-66
2022/05/15 07:00:00;;;;;;;17.13;9.50;;;;;;;;;;5036140;28;20189;-67
2022/05/15 07:02:27;;;;;;;17.50;10.37;;;;;;;;;;5036582;28;20171;-67
2022/05/15 07:04:53;;;;;;;12.97;7.77;;;;;;;;;;5036389;28;20181;-67
2022/05/15 07:07:19;;;;;;;11.93;5.70;;;;;;;;;;5054281;28;20580;-67
2022/05/15 07:09:45;;;;;;;10.30;5.50;;;;;;;;;;5036363;28;20179;-67
2022/05/15 07:12:11;;;;;;;4.07;3.67;;;;;;;;;;5036370;28;20209;-67
2022/05/15 07:14:37;;;;;;;4.33;3.47;;;;;;;;;;5036355;28;20217;-67
2022/05/15 07:17:03;;;;;;;3.77;3.30;;;;;;;;;;5036220;28;20696;-66
2022/05/15 07:19:29;;;;;;;7.70;3.67;;;;;;;;;;5054112;28;20673;-65
2022/05/15 07:21:55;;;;;;;3.83;3.20;;;;;;;;;;5036142;28;20178;-65
2022/05/15 07:24:22;;;;;;;3.43;2.80;;;;;;;;;;5036592;28;20666;-65
2022/05/15 07:26:48;;;;;;;4.10;3.70;;;;;;;;;;5053947;28;20654;-65
2022/05/15 07:29:14;;;;;;;3.67;3.00;;;;;;;;;;5035980;28;20208;-65
2022/05/15 07:31:40;;;;;;;5.30;3.90;;;;;;;;;;5053572;28;20210;-65
2022/05/15 07:34:07;;;;;;;3.97;3.20;;;;;;;;;;5053765;28;20183;-65
2022/05/15 07:36:33;;;;;;;4.13;3.47;;;;;;;;;;5035702;28;20210;-65
2022/05/15 07:38:59;;;;;;;3.77;3.00;;;;;;;;;;5054248;28;20264;-65
2022/05/15 07:41:25;;;;;;;5.23;3.33;;;;;;;;;;5054200;28;20635;-65
2022/05/15 07:43:51;;;;;;;3.97;3.57;;;;;;;;;;5053644;28;20602;-65
2022/05/15 07:46:17;;;;;;;3.73;3.30;;;;;;;;;;5035601;28;20724;-65
2022/05/15 07:48:43;;;;;;;3.83;3.40;;;;;;;;;;5053517;28;20182;-65
2022/05/15 07:51:09;;;;;;;6.97;3.90;;;;;;;;;;5035329;28;20624;-65
2022/05/15 07:53:35;;;;;;;5.03;3.57;;;;;;;;;;5053719;28;20219;-65
2022/05/15 07:56:09;;;;;;;3.97;3.10;;;;;;;;;;5053233;28;20689;-65
2022/05/15 07:58:35;;;;;;;4.63;4.10;;;;;;;;;;5035544;28;20261;-65
2022/05/15 08:01:04;;;;;;;3.37;2.77;;;;;;;;;;5053897;28;20262;-65
2022/05/15 08:03:33;;;;;;;4.23;3.13;;;;;;;;;;5053878;28;20622;-65
2022/05/15 08:08:44;;;;;;;4.97;3.90;;;;;;;;;;5053082;28;20194;-65
2022/05/15 08:11:10;;;;;;;3.93;3.20;;;;;;;;;;5052048;28;20595;-67
2022/05/15 08:13:36;;;;;;;3.77;3.33;;;;;;;;;;5034737;28;20642;-65
2022/05/15 08:16:02;;;;;;;4.90;3.17;;;;;;;;;;5052753;28;20229;-65
2022/05/15 08:23:58;;;;;;;4.80;2.77;;;;;;;;;;5053470;28;20166;-65
2022/05/15 08:26:24;;;;;;;5.20;2.43;;;;;;;;;;5052983;28;20220;-65
2022/05/15 08:28:50;;;;;;;1.90;1.80;;;;;;;;;;5053324;28;20187;-65
2022/05/15 08:31:20;;;;;;;2.70;2.40;;;;;;;;;;5053414;28;20228;-65
2022/05/15 08:33:46;;;;;;;2.23;2.03;;;;;;;;;;5053011;28;20214;-65
2022/05/15 08:36:12;;;;;;;4.30;2.03;;;;;;;;;;5034848;28;20202;-65
2022/05/15 08:38:39;;;;;;;2.83;2.27;;;;;;;;;;5053194;28;20174;-65
2022/05/15 08:41:16;;;;;;;2.53;1.93;;;;;;;;;;5053097;28;20661;-65
2022/05/15 08:43:48;;;;;;;1.90;1.70;;;;;;;;;;5053170;28;20171;-65
2022/05/15 08:46:32;;;;;;;2.20;1.77;;;;;;;;;;5034849;28;20236;-65
2022/05/15 08:49:09;;;;;;;2.57;1.63;;;;;;;;;;5035024;28;20174;-65
2022/05/15 08:51:35;;;;;;;2.47;1.90;;;;;;;;;;5034800;28;20186;-65
2022/05/15 08:54:04;;;;;;;7.43;2.10;;;;;;;;;;5053079;28;20186;-65
2022/05/15 08:56:34;;;;;;;2.73;2.53;;;;;;;;;;5052696;28;20232;-65
2022/05/15 08:59:04;;;;;;;2.43;1.73;;;;;;;;;;5052759;28;20171;-65
2022/05/15 09:01:32;;;;;;;2.50;1.93;;;;;;;;;;5053170;28;20159;-65
2022/05/15 09:03:58;;;;;;;2.30;1.67;;;;;;;;;;5052869;28;20205;-65
2022/05/15 09:06:24;;;;;;;2.43;1.90;;;;;;;;;;5052520;28;20195;-65
2022/05/15 09:08:50;;;;;;;2.97;1.70;;;;;;;;;;5052696;28;20213;-65
2022/05/15 09:11:25;;;;;;;2.17;1.93;;;;;;;;;;5052905;28;20702;-66
2022/05/15 09:14:17;;;;;;;1.90;1.80;;;;;;;;;;5052845;28;20166;-65
2022/05/15 09:16:51;;;;;;;2.93;2.00;;;;;;;;;;5021750;28;20225;-65
2022/05/15 09:19:17;;;;;;;2.00;1.57;;;;;;;;;;5052716;28;20165;-65
2022/05/15 09:21:43;;;;;;;4.03;2.10;;;;;;;;;;5053438;28;20274;-65
2022/05/15 09:24:15;;;;;;;2.40;2.03;;;;;;;;;;5056230;28;20521;-65
2022/05/15 09:26:45;;;;;;;2.03;1.70;;;;;;;;;;5038334;28;20321;-66
2022/05/15 09:29:20;;;;;;;2.50;2.10;;;;;;;;;;5056377;28;20158;-65
2022/05/15 09:31:46;;;;;;;2.23;1.93;;;;;;;;;;5038258;28;20174;-65
2022/05/15 09:34:23;;;;;;;1.87;1.77;;;;;;;;;;5056175;28;20178;-65
2022/05/15 09:36:50;;;;;;;3.07;1.90;;;;;;;;;;5037998;28;20202;-65
2022/05/15 09:39:27;;;;;;;1.40;1.30;;;;;;;;;;5038063;28;20237;-65
2022/05/15 09:44:47;;;;;;;3.00;2.10;;;;;;;;;;5055758;28;20745;-66
2022/05/15 09:47:19;;;;;;;2.13;1.90;;;;;;;;;;5055708;28;20244;-65
2022/05/15 09:49:45;;;;;;;2.37;1.77;;;;;;;;;;5055674;28;20727;-64
2022/05/15 09:52:14;;;;;;;3.17;2.17;;;;;;;;;;5056272;28;20257;-65
2022/05/15 09:54:43;;;;;;;3.20;2.00;;;;;;;;;;5037808;28;20178;-65
2022/05/15 09:57:15;;;;;;;2.23;2.03;;;;;;;;;;5037702;28;20213;-65
2022/05/15 09:59:42;;;;;;;3.33;2.10;;;;;;;;;;5055735;28;20181;-66
2022/05/15 10:02:17;;;;;;;2.77;2.30;;;;;;;;;;5055609;28;20178;-65
2022/05/15 10:04:47;;;;;;;2.43;1.90;;;;;;;;;;5055862;28;20155;-65
2022/05/15 10:07:27;;;;;;;2.97;2.37;;;;;;;;;;5055516;28;20222;-65
2022/05/15 10:09:54;;;;;;;2.23;1.70;;;;;;;;;;5037633;28;20265;-65
2022/05/15 10:12:30;;;;;;;2.97;1.77;;;;;;;;;;5055403;28;20206;-65
2022/05/15 10:15:01;;;;;;;4.70;1.50;;;;;;;;;;5037484;28;20182;-65
2022/05/15 10:17:27;;;;;;;2.23;1.90;;;;;;;;;;5037382;28;20284;-65
2022/05/15 10:20:00;;;;;;;1.40;1.30;;;;;;;;;;5055222;28;20167;-65
2022/05/15 10:22:33;;;;;;;1.67;1.57;;;;;;;;;;5037293;28;20186;-66
2022/05/15 10:25:06;;;;;;;3.23;1.43;;;;;;;;;;5055078;28;20174;-65
2022/05/15 10:27:35;;;;;;;1.73;1.63;;;;;;;;;;5055070;28;20206;-65
2022/05/15 10:30:05;;;;;;;1.80;1.53;;;;;;;;;;5037081;28;20183;-65
2022/05/15 10:32:46;;;;;;;2.57;1.50;;;;;;;;;;5036951;28;20182;-68
2022/05/15 10:35:14;;;;;;;1.60;1.50;;;;;;;;;;5036707;28;20265;-65
2022/05/15 10:37:51;;;;;;;2.97;1.57;;;;;;;;;;5055029;28;20568;-64
2022/05/15 10:40:20;;;;;;;1.77;1.67;;;;;;;;;;5037114;28;20189;-65
2022/05/15 10:43:00;;;;;;;1.60;1.50;;;;;;;;;;5055560;28;20183;-65
2022/05/15 10:45:32;;;;;;;2.67;1.77;;;;;;;;;;5037197;28;20198;-65
2022/05/15 10:48:06;;;;;;;4.77;1.57;;;;;;;;;;5036959;28;20701;-65
2022/05/15 10:50:35;;;;;;;2.00;1.80;;;;;;;;;;5055095;28;20171;-65
2022/05/15 10:59:28;;;;;;;1.70;1.60;;;;;;;;;;5024748;28;20236;-65
2022/05/15 11:02:12;;;;;;;3.63;1.83;;;;;;;;;;5055595;28;20163;-65
2022/05/15 11:04:50;;;;;;;1.93;1.83;;;;;;;;;;5036859;28;20232;-64
2022/05/15 11:07:22;;;;;;;1.63;1.30;;;;;;;;;;5054353;28;20709;-66
2022/05/15 11:09:48;;;;;;;2.50;1.73;;;;;;;;;;5054648;28;20249;-66
2022/05/15 11:12:27;;;;;;;4.13;1.70;;;;;;;;;;5054518;28;20210;-66
2022/05/15 11:14:53;;;;;;;2.83;1.50;;;;;;;;;;5054465;28;20169;-65
2022/05/15 11:17:32;;;;;;;3.80;1.97;;;;;;;;;;5054093;28;20206;-65
2022/05/15 11:20:02;;;;;;;2.93;1.90;;;;;;;;;;5054384;28;20656;-65
2022/05/15 11:22:37;;;;;;;1.90;1.70;;;;;;;;;;5054289;28;20155;-65
2022/05/15 11:25:04;;;;;;;2.10;1.90;;;;;;;;;;5036188;28;20170;-65
2022/05/15 11:27:47;;;;;;;2.40;1.97;;;;;;;;;;5053997;28;20209;-65
2022/05/15 11:30:17;;;;;;;3.13;1.90;;;;;;;;;;5054153;28;20171;-66
2022/05/15 11:32:46;;;;;;;2.07;1.50;;;;;;;;;;5053934;28;20170;-65
2022/05/15 11:35:19;;;;;;;1.60;1.50;;;;;;;;;;5053782;28;20179;-65
2022/05/15 11:37:45;;;;;;;3.60;1.63;;;;;;;;;;5054143;28;20241;-65
2022/05/15 11:40:13;;;;;;;2.70;1.60;;;;;;;;;;5054049;28;20182;-66
2022/05/15 11:42:40;;;;;;;2.17;1.93;;;;;;;;;;5053625;28;20197;-65
2022/05/15 11:45:39;;;;;;;1.73;1.63;;;;;;;;;;5053583;28;20551;-65
2022/05/15 11:48:19;;;;;;;1.60;1.50;;;;;;;;;;5010119;28;20194;-65
2022/05/15 11:50:56;;;;;;;2.67;1.73;;;;;;;;;;5053697;28;20194;-65
2022/05/15 11:53:32;;;;;;;1.90;1.47;;;;;;;;;;5054013;28;20615;-64
2022/05/15 11:55:59;;;;;;;1.57;1.47;;;;;;;;;;5035555;28;20201;-66
2022/05/15 11:58:32;;;;;;;1.80;1.57;;;;;;;;;;5053787;28;20201;-65
2022/05/15 12:01:04;;;;;;;2.37;1.30;;;;;;;;;;5072780;22;20217;-66
2022/05/15 12:03:39;;;;;;;1.73;1.50;;;;;;;;;;5036029;28;20186;-67
2022/05/15 12:06:10;;;;;;;2.35;1.60;;;;;;;;;;5052670;28;20477;-66
2022/05/15 12:08:37;;;;;;;1.73;1.63;;;;;;;;;;5053658;28;20171;-65
2022/05/15 12:11:27;;;;;;;1.77;1.67;;;;;;;;;;5053511;28;20740;-66
2022/05/15 12:13:54;;;;;;;2.23;1.63;;;;;;;;;;5028233;28;20198;-67
2022/05/15 12:16:20;;;;;;;1.50;1.40;;;;;;;;;;5053485;28;20202;-67
2022/05/15 12:18:48;;;;;;;1.70;1.60;;;;;;;;;;5053506;28;20174;-66
2022/05/15 12:21:15;;;;;;;1.83;1.33;;;;;;;;;;5053462;28;20244;-64
2022/05/15 12:26:47;;;;;;;1.90;1.50;;;;;;;;;;5053525;28;20179;-65
2022/05/15 12:29:16;;;;;;;1.87;1.50;;;;;;;;;;5053562;28;20166;-65
2022/05/15 12:31:46;;;;;;;1.90;1.80;;;;;;;;;;5053508;28;20234;-64
2022/05/15 12:34:15;;;;;;;1.53;1.43;;;;;;;;;;5035393;28;20213;-66
2022/05/15 12:36:42;;;;;;;2.10;1.43;;;;;;;;;;5053382;28;20202;-64
2022/05/15 12:39:12;;;;;;;1.20;1.20;;;;;;;;;;5053098;28;20545;-65
2022/05/15 12:41:42;;;;;;;1.77;1.67;;;;;;;;;;5035166;28;20572;-64
2022/05/15 12:44:11;;;;;;;1.60;1.50;;;;;;;;;;5053308;28;20158;-65
2022/05/15 12:46:40;;;;;;;1.50;1.40;;;;;;;;;;5053654;28;20174;-65
2022/05/15 12:49:07;;;;;;;2.90;1.80;;;;;;;;;;5053062;28;20206;-65
2022/05/15 12:51:34;;;;;;;1.50;1.40;;;;;;;;;;5034935;28;20632;-65
2022/05/15 12:54:01;;;;;;;1.67;1.57;;;;;;;;;;5052844;28;20179;-64
2022/05/15 12:56:30;;;;;;;1.87;1.67;;;;;;;;;;5035624;28;20208;-64
2022/05/15 12:59:00;;;;;;;1.43;1.33;;;;;;;;;;5057093;28;20170;-64
2022/05/15 13:01:30;;;;;;;3.60;1.70;;;;;;;;;;5056899;28;20260;-65
2022/05/15 13:03:57;;;;;;;2.33;1.50;;;;;;;;;;5039031;28;20171;-65
2022/05/15 13:06:28;;;;;;;1.77;1.67;;;;;;;;;;5056702;28;20204;-65
2022/05/15 13:08:57;;;;;;;1.63;1.53;;;;;;;;;;5056668;28;20179;-64
2022/05/15 13:11:29;;;;;;;1.50;1.40;;;;;;;;;;5038768;28;20289;-65
2022/05/15 13:13:57;;;;;;;1.87;1.77;;;;;;;;;;5056848;28;20183;-65
2022/05/15 13:16:24;;;;;;;2.10;1.80;;;;;;;;;;5056543;28;20197;-65
2022/05/15 13:18:53;;;;;;;1.70;1.60;;;;;;;;;;5056462;28;20178;-65
2022/05/15 13:21:24;;;;;;;2.43;1.60;;;;;;;;;;5056378;28;20186;-65
2022/05/15 13:23:51;;;;;;;1.47;1.30;;;;;;;;;;5038561;28;20247;-65
2022/05/15 13:26:24;;;;;;;2.00;1.60;;;;;;;;;;5038513;28;20189;-65
2022/05/15 13:28:51;;;;;;;3.07;1.70;;;;;;;;;;5038378;28;20186;-64
2022/05/15 13:31:17;;;;;;;3.27;2.27;;;;;;;;;;5056109;28;20206;-65
2022/05/15 13:33:44;;;;;;;2.03;1.83;;;;;;;;;;5056122;28;20661;-64
2022/05/15 13:36:15;;;;;;;1.87;1.73;;;;;;;;;;5038555;28;20210;-64
2022/05/15 13:44:13;;;;;;;1.70;1.60;;;;;;;;;;5056360;28;20173;-65
2022/05/15 13:46:40;;;;;;;;;;;;;;;;;;5056613;28;20491;-64
2022/05/15 13:49:06;;;;;;;;;;;;;;;;;;5057014;28;20427;-66
2022/05/15 13:51:32;;;;;;;;;;;;;;;;;;5056371;28;19909;-66
2022/05/15 13:54:07;;;;;;;2.20;2.00;;;;;;;;;;5037719;28;20766;-65
2022/05/15 13:56:33;;;;;;;2.92;1.90;;;;;;;;;;5056004;28;20198;-65
2022/05/15 13:58:59;;;;;;;1.80;1.70;;;;;;;;;;5056005;28;20169;-65
2022/05/15 14:01:26;;;;;;;2.90;1.92;;;;;;;;;;5055627;28;20595;-65
2022/05/15 14:03:53;;;;;;;2.30;1.77;;;;;;;;;;5037934;28;20580;-65
2022/05/15 14:06:24;;;;;;;1.83;1.73;;;;;;;;;;5055725;28;20166;-65
2022/05/15 14:08:59;;;;;;;2.03;1.77;;;;;;;;;;5054244;28;20171;-65
2022/05/15 14:11:26;;;;;;;2.70;1.70;;;;;;;;;;5037521;28;20240;-65
2022/05/15 14:13:53;;;;;;;2.38;1.85;;;;;;;;;;5037547;28;20178;-65
2022/05/15 14:16:21;;;;;;;1.95;1.85;;;;;;;;;;5055472;28;20221;-65
2022/05/15 14:18:47;;;;;;;2.57;2.03;;;;;;;;;;5055310;28;20163;-62
2022/05/15 14:21:20;;;;;;;2.00;1.90;;;;;;;;;;5037627;28;20198;-64
2022/05/15 14:23:46;;;;;;;2.10;2.00;;;;;;;;;;5055954;28;20205;-63
2022/05/15 14:26:14;;;;;;;1.75;1.65;;;;;;;;;;5037481;28;20197;-63
2022/05/15 14:28:40;;;;;;;1.83;1.73;;;;;;;;;;5037373;28;20186;-68
2022/05/15 14:31:10;;;;;;;2.05;1.85;;;;;;;;;;5038135;28;20202;-66
2022/05/15 14:33:36;;;;;;;2.05;1.77;;;;;;;;;;5038535;28;20178;-64
2022/05/15 14:36:09;;;;;;;2.20;2.00;;;;;;;;;;5057413;28;20264;-64
2022/05/15 14:38:35;;;;;;;2.23;1.90;;;;;;;;;;5037746;28;20255;-64
2022/05/15 14:41:01;;;;;;;2.42;2.22;;;;;;;;;;5054926;28;20682;-64
2022/05/15 14:43:27;;;;;;;2.35;2.15;;;;;;;;;;5055011;28;20661;-64
2022/05/15 14:45:58;;;;;;;2.65;2.20;;;;;;;;;;5055031;28;20201;-64
2022/05/15 14:48:26;;;;;;;2.50;2.30;;;;;;;;;;5055493;28;20158;-64
2022/05/15 14:50:53;;;;;;;2.70;2.50;;;;;;;;;;5054777;28;20191;-64
2022/05/15 14:53:20;;;;;;;2.30;2.10;;;;;;;;;;5054751;28;20257;-64
2022/05/15 14:58:31;;;;;;;2.00;1.90;;;;;;;;;;5054879;28;20583;-65
2022/05/15 15:00:58;;;;;;;2.03;1.90;;;;;;;;;;5036547;28;20570;-66
2022/05/15 15:03:24;;;;;;;1.83;1.73;;;;;;;;;;5054987;28;20194;-65
2022/05/15 15:05:52;;;;;;;3.05;2.00;;;;;;;;;;5054997;28;20250;-64
2022/05/15 15:08:20;;;;;;;2.10;1.90;;;;;;;;;;5036803;28;20174;-64
2022/05/15 15:10:46;;;;;;;1.83;1.73;;;;;;;;;;5054601;28;20277;-65
2022/05/15 15:13:13;;;;;;;2.35;2.00;;;;;;;;;;5036455;28;20186;-65
2022/05/15 15:15:40;;;;;;;4.70;2.28;;;;;;;;;;5036538;28;20183;-65
2022/05/15 15:18:06;;;;;;;2.00;1.80;;;;;;;;;;5054475;28;20206;-65
2022/05/15 15:20:33;;;;;;;2.65;2.10;;;;;;;;;;5053798;28;20194;-64